Time;durP1;ratioP1;P1;durP2;ratioP2;P2;SDS_P1;SDS_P2;PMS_P1;PMS_P2;Temp;Humidity;BMP_temperature;BMP_pressure;BME280_temperature;BME280_humidity;BME280_pressure;Samples;Min_cycle;Max_cycle;Signal;HPM_P1;HPM_P2
2022/01/27 00:01:46;;;;;;;40.75;16.65;;;0.90;99.90;;;;;;5110227;28;20376;-59
2022/01/27 00:04:15;;;;;;;43.38;17.63;;;0.80;99.90;;;;;;5110166;28;20388;-62
2022/01/27 00:06:41;;;;;;;42.13;17.05;;;0.70;99.90;;;;;;5109593;28;20441;-62
2022/01/27 00:09:20;;;;;;;41.80;16.95;;;0.60;99.90;;;;;;5109860;28;20381;-64
2022/01/27 00:11:47;;;;;;;46.58;18.58;;;0.70;99.90;;;;;;5110163;28;20437;-62
2022/01/27 00:14:14;;;;;;;40.03;16.83;;;0.70;99.90;;;;;;5110306;28;20493;-63
2022/01/27 00:16:44;;;;;;;35.15;15.48;;;0.60;99.90;;;;;;5107590;28;20419;-62
2022/01/27 00:19:11;;;;;;;43.30;17.95;;;0.60;99.90;;;;;;5110160;28;20376;-63
2022/01/27 00:21:37;;;;;;;42.78;16.40;;;1.40;99.90;;;;;;5109288;28;20453;-63
2022/01/27 00:24:04;;;;;;;41.40;17.38;;;0.60;99.90;;;;;;5110028;28;20380;-62
2022/01/27 00:26:29;;;;;;;44.25;17.85;;;0.70;99.90;;;;;;5109065;28;20376;-63
2022/01/27 00:28:55;;;;;;;45.93;17.07;;;0.80;99.90;;;;;;5109934;28;20395;-62
2022/01/27 00:31:22;;;;;;;46.67;18.65;;;0.80;99.90;;;;;;5108021;28;20876;-59
2022/01/27 00:33:48;;;;;;;44.58;17.33;;;-0.30;99.90;;;;;;5109705;28;20869;-63
2022/01/27 00:36:14;;;;;;;40.97;16.57;;;0.80;99.90;;;;;;5107692;28;20449;-63
2022/01/27 00:38:40;;;;;;;44.77;18.57;;;0.80;99.90;;;;;;5109001;28;20850;-64
2022/01/27 00:41:06;;;;;;;40.55;17.25;;;0.80;99.90;;;;;;5110214;28;20437;-64
2022/01/27 00:43:32;;;;;;;45.72;18.90;;;0.80;99.90;;;;;;5108902;28;20376;-63
2022/01/27 00:45:58;;;;;;;45.60;18.25;;;0.90;99.90;;;;;;5109491;28;20385;-63
2022/01/27 00:48:23;;;;;;;45.13;19.60;;;0.70;99.90;;;;;;5108872;28;20467;-63
2022/01/27 00:50:56;;;;;;;39.20;16.97;;;0.70;99.90;;;;;;5078494;28;20415;-63
2022/01/27 00:56:30;;;;;;;42.65;16.42;;;0.80;99.90;;;;;;5075603;28;20384;-64
2022/01/27 00:59:51;;;;;;;40.67;16.97;;;0.80;99.90;;;;;;5069363;28;20379;-64
2022/01/27 01:01:47;;;;;;;39.15;17.40;;;0.80;99.90;;;;;;5064218;28;20392;-63
2022/01/27 01:04:13;;;;;;;42.83;17.40;;;0.90;99.90;;;;;;5069250;28;20470;-65
2022/01/27 01:06:46;;;;;;;53.80;20.20;;;2.00;99.90;;;;;;5068243;28;20383;-63
2022/01/27 01:14:54;;;;;;;34.60;14.23;;;1.00;99.90;;;;;;5068093;28;20456;-63
2022/01/27 01:33:11;;;;;;;39.13;16.70;;;1.00;99.90;;;;;;5068932;28;20386;-64
2022/01/27 01:36:02;;;;;;;33.88;15.68;;;1.10;99.90;;;;;;5068194;28;20368;-64
2022/01/27 01:38:30;;;;;;;40.22;17.13;;;1.10;99.90;;;;;;5068210;28;20460;-63
2022/01/27 01:40:56;;;;;;;48.15;17.85;;;1.10;99.90;;;;;;5068720;28;20402;-62
2022/01/27 01:43:23;;;;;;;46.50;18.20;;;1.00;99.90;;;;;;5068379;28;20402;-59
2022/01/27 01:45:49;;;;;;;39.08;15.43;;;0.80;99.90;;;;;;5068416;28;20430;-63
2022/01/27 01:48:16;;;;;;;41.88;16.90;;;0.70;99.90;;;;;;5071257;28;20388;-63
2022/01/27 01:50:43;;;;;;;41.28;15.75;;;0.70;99.90;;;;;;5071895;28;20732;-61
2022/01/27 01:53:09;;;;;;;43.03;16.13;;;1.00;99.90;;;;;;5091918;28;20382;-62
2022/01/27 01:55:34;;;;;;;55.37;18.03;;;0.70;99.90;;;;;;5091351;28;20468;-62
2022/01/27 01:58:01;;;;;;;40.93;15.27;;;0.70;99.90;;;;;;5090644;28;20461;-62
2022/01/27 02:00:28;;;;;;;44.00;15.52;;;0.80;99.90;;;;;;5082868;28;20923;-62
2022/01/27 02:02:54;;;;;;;47.10;17.60;;;0.80;99.90;;;;;;5072309;28;20525;-63
2022/01/27 02:05:28;;;;;;;42.80;16.67;;;0.70;99.90;;;;;;5072148;28;20462;-62
2022/01/27 02:19:18;;;;;;;45.67;17.88;;;0.70;99.90;;;;;;5071590;28;20741;-63
2022/01/27 02:21:56;;;;;;;43.10;16.88;;;0.60;99.90;;;;;;5070696;28;20376;-63
2022/01/27 02:24:24;;;;;;;38.67;15.75;;;0.60;99.90;;;;;;5071125;28;20391;-59
2022/01/27 02:26:51;;;;;;;40.95;14.82;;;0.40;99.90;;;;;;5071790;28;20407;-62
2022/01/27 02:29:18;;;;;;;46.70;17.98;;;0.70;99.90;;;;;;5071687;28;20403;-63
2022/01/27 02:31:45;;;;;;;38.07;15.70;;;0.70;99.90;;;;;;5070902;28;20387;-63
2022/01/27 02:34:11;;;;;;;34.03;15.25;;;0.80;99.90;;;;;;5071602;28;20403;-64
2022/01/27 02:36:36;;;;;;;40.55;16.00;;;0.70;99.90;;;;;;5070538;28;20810;-63
2022/01/27 02:39:08;;;;;;;46.92;16.80;;;0.80;99.90;;;;;;5072061;28;20435;-62
2022/01/27 02:41:46;;;;;;;35.38;14.70;;;0.90;99.90;;;;;;5077970;28;20456;-60
2022/01/27 02:44:51;;;;;;;35.97;15.70;;;1.00;99.90;;;;;;5088802;28;20389;-63
2022/01/27 02:47:18;;;;;;;32.17;13.75;;;1.10;99.90;;;;;;5070471;28;20714;-63
2022/01/27 02:49:44;;;;;;;38.55;15.02;;;1.20;99.90;;;;;;5070726;28;20886;-63
2022/01/27 02:52:10;;;;;;;37.92;15.52;;;1.20;99.90;;;;;;5071358;28;20881;-63
2022/01/27 02:54:36;;;;;;;43.83;17.20;;;1.10;99.90;;;;;;5070316;28;20402;-63
2022/01/27 02:57:03;;;;;;;35.28;15.57;;;1.00;99.90;;;;;;5071447;28;20956;-63
2022/01/27 02:59:29;;;;;;;35.67;14.90;;;1.00;99.90;;;;;;5068996;28;20380;-63
2022/01/27 03:01:55;;;;;;;48.83;19.30;;;0.90;99.90;;;;;;5070232;28;20459;-63
2022/01/27 03:04:23;;;;;;;45.08;18.52;;;0.90;99.90;;;;;;5070417;28;20744;-63
2022/01/27 03:06:50;;;;;;;41.85;16.77;;;0.90;99.90;;;;;;5070562;28;20375;-63
2022/01/27 03:09:15;;;;;;;36.92;14.88;;;0.90;99.90;;;;;;5070814;28;20427;-63
2022/01/27 03:11:57;;;;;;;34.47;14.00;;;1.00;99.90;;;;;;5069960;28;20388;-63
2022/01/27 03:14:24;;;;;;;32.33;13.32;;;0.90;99.90;;;;;;5070555;28;20737;-61
2022/01/27 03:16:54;;;;;;;37.13;14.82;;;0.90;99.90;;;;;;5069902;28;20495;-63
2022/01/27 03:19:21;;;;;;;43.53;17.20;;;0.90;99.90;;;;;;5070654;28;20837;-63
2022/01/27 03:21:46;;;;;;;38.20;16.10;;;0.80;99.90;;;;;;5069831;28;20372;-60
2022/01/27 03:24:12;;;;;;;35.53;15.55;;;0.70;99.90;;;;;;5070717;28;20382;-63
2022/01/27 03:26:40;;;;;;;36.47;14.63;;;0.90;99.90;;;;;;5068225;28;20466;-63
2022/01/27 03:29:05;;;;;;;39.20;16.08;;;0.60;99.90;;;;;;5070361;28;20387;-60
2022/01/27 03:31:31;;;;;;;35.00;15.27;;;0.60;99.90;;;;;;5069668;28;20388;-63
2022/01/27 03:33:56;;;;;;;38.58;15.63;;;1.30;99.90;;;;;;5070259;28;20722;-62
2022/01/27 03:36:23;;;;;;;45.87;16.53;;;1.20;99.90;;;;;;5069574;28;20723;-59
2022/01/27 03:38:49;;;;;;;38.78;15.00;;;0.40;99.90;;;;;;5069660;28;20422;-63
2022/01/27 03:41:19;;;;;;;36.95;15.70;;;0.40;99.90;;;;;;5069968;28;20881;-63
2022/01/27 03:43:46;;;;;;;42.78;16.25;;;0.40;99.90;;;;;;5069117;28;20375;-62
2022/01/27 03:46:12;;;;;;;36.55;14.77;;;0.50;99.90;;;;;;5102664;28;20486;-62
2022/01/27 03:48:37;;;;;;;41.42;16.10;;;0.40;99.90;;;;;;5069202;28;20491;-63
2022/01/27 03:51:03;;;;;;;45.60;16.10;;;1.60;99.90;;;;;;5069382;28;20438;-62
2022/01/27 03:53:30;;;;;;;35.03;15.93;;;-0.40;99.90;;;;;;5069338;28;20896;-63
2022/01/27 03:55:57;;;;;;;36.85;13.75;;;0.60;99.90;;;;;;5079638;28;20402;-62
2022/01/27 03:58:22;;;;;;;38.63;15.10;;;0.60;99.90;;;;;;5089845;28;20382;-62
2022/01/27 04:00:48;;;;;;;42.40;16.80;;;0.70;99.90;;;;;;5089052;28;20386;-63
2022/01/27 04:03:16;;;;;;;39.83;15.97;;;0.70;99.90;;;;;;5090021;28;20374;-63
2022/01/27 04:05:49;;;;;;;42.45;16.85;;;0.70;99.90;;;;;;5088981;28;20374;-62
2022/01/27 04:08:15;;;;;;;40.78;16.52;;;0.70;99.90;;;;;;5089824;28;20867;-63
2022/01/27 04:10:40;;;;;;;38.97;16.33;;;0.70;99.90;;;;;;5088995;28;20493;-63
2022/01/27 04:13:07;;;;;;;40.58;16.95;;;1.50;99.90;;;;;;5089795;28;20848;-63
2022/01/27 04:15:34;;;;;;;41.27;15.60;;;0.80;99.90;;;;;;5087552;28;20402;-63
2022/01/27 04:18:01;;;;;;;39.45;15.48;;;0.80;99.90;;;;;;5089152;28;20414;-63
2022/01/27 04:20:27;;;;;;;40.35;15.95;;;0.50;99.90;;;;;;5088331;28;20726;-59
2022/01/27 04:22:52;;;;;;;37.90;15.52;;;0.50;99.90;;;;;;5089722;28;20393;-62
2022/01/27 04:25:18;;;;;;;39.17;15.65;;;0.60;99.90;;;;;;5088589;28;20393;-63
2022/01/27 04:27:49;;;;;;;39.00;15.45;;;0.70;99.90;;;;;;5089207;28;20374;-63
2022/01/27 04:30:20;;;;;;;36.20;14.83;;;0.70;99.90;;;;;;5077390;28;20819;-63
2022/01/27 04:32:54;;;;;;;41.30;15.50;;;0.80;99.90;;;;;;5070430;28;20471;-63
2022/01/27 04:35:22;;;;;;;39.85;16.08;;;0.80;99.90;;;;;;5089589;28;20388;-62
2022/01/27 04:43:22;;;;;;;43.47;17.65;;;0.90;99.90;;;;;;5089471;28;20371;-60
2022/01/27 04:48:46;;;;;;;42.05;16.90;;;0.90;99.90;;;;;;5088248;28;20385;-63
2022/01/27 04:51:15;;;;;;;42.85;16.88;;;0.80;99.90;;;;;;5088878;28;20901;-62
2022/01/27 04:53:47;;;;;;;47.53;16.67;;;0.80;99.90;;;;;;5088317;28;20388;-63
2022/01/27 04:56:15;;;;;;;56.42;19.67;;;0.80;99.90;;;;;;5089453;28;20378;-63
2022/01/27 04:58:43;;;;;;;55.03;21.27;;;0.80;99.90;;;;;;5088346;28;20393;-63
2022/01/27 05:01:09;;;;;;;57.35;21.15;;;0.70;99.90;;;;;;5089315;28;20406;-63
2022/01/27 05:06:01;;;;;;;46.60;18.10;;;0.70;99.90;;;;;;5089320;28;20417;-63
2022/01/27 05:08:26;;;;;;;45.35;17.23;;;0.70;99.90;;;;;;5088826;28;20461;-59
2022/01/27 05:11:03;;;;;;;49.47;19.43;;;0.70;99.90;;;;;;5078754;28;20952;-62
2022/01/27 05:13:36;;;;;;;48.10;18.33;;;0.70;99.90;;;;;;5082654;28;20408;-59
2022/01/27 05:16:02;;;;;;;61.17;21.58;;;0.70;99.90;;;;;;5070814;28;20387;-62
2022/01/27 05:18:28;;;;;;;55.67;19.55;;;0.60;99.90;;;;;;5068986;28;20407;-59
2022/01/27 05:20:53;;;;;;;55.78;20.38;;;0.70;99.90;;;;;;5091076;28;20495;-62
2022/01/27 05:23:19;;;;;;;47.38;18.55;;;0.70;99.90;;;;;;5094111;28;20416;-62
2022/01/27 05:25:45;;;;;;;51.40;20.30;;;0.80;99.90;;;;;;5095646;28;20420;-63
2022/01/27 05:28:10;;;;;;;50.95;18.85;;;0.80;99.90;;;;;;5094174;28;20384;-62
2022/01/27 05:30:36;;;;;;;51.25;19.05;;;0.90;99.90;;;;;;5088523;28;20909;-62
2022/01/27 05:33:02;;;;;;;44.77;18.80;;;1.00;99.90;;;;;;5072769;28;20386;-63
2022/01/27 05:35:28;;;;;;;56.92;20.45;;;0.90;99.90;;;;;;5073312;28;20395;-58
2022/01/27 05:37:54;;;;;;;80.38;25.85;;;0.90;99.90;;;;;;5093080;28;20874;-63
2022/01/27 05:40:19;;;;;;;64.85;21.73;;;0.90;99.90;;;;;;5091025;28;20381;-61
2022/01/27 05:42:45;;;;;;;48.78;19.63;;;1.30;99.90;;;;;;5083284;28;20401;-62
2022/01/27 05:45:11;;;;;;;50.63;21.67;;;0.80;99.90;;;;;;5090765;28;20382;-63
2022/01/27 05:47:37;;;;;;;68.95;25.00;;;0.80;99.90;;;;;;5080817;28;20429;-62
2022/01/27 05:50:04;;;;;;;44.03;18.73;;;0.70;99.90;;;;;;5092489;28;20437;-63
2022/01/27 05:52:30;;;;;;;75.93;27.38;;;0.70;99.90;;;;;;5083470;28;20886;-62
2022/01/27 05:54:57;;;;;;;49.90;19.77;;;0.70;99.90;;;;;;5073698;28;20399;-62
2022/01/27 05:57:23;;;;;;;56.20;20.90;;;0.50;99.90;;;;;;5075221;28;20409;-62
2022/01/27 05:59:48;;;;;;;58.83;21.73;;;0.40;99.90;;;;;;5073093;28;20402;-62
2022/01/27 06:02:14;;;;;;;64.95;21.98;;;0.40;99.90;;;;;;5068315;28;20414;-61
2022/01/27 06:04:40;;;;;;;58.80;22.75;;;0.90;99.90;;;;;;5067790;28;20414;-63
2022/01/27 06:07:05;;;;;;;68.40;24.67;;;0.40;99.90;;;;;;5071682;28;20488;-61
2022/01/27 06:09:31;;;;;;;59.30;22.63;;;0.20;99.90;;;;;;5073089;28;20447;-61
2022/01/27 06:11:56;;;;;;;61.78;22.92;;;0.20;99.90;;;;;;5072981;28;20483;-62
2022/01/27 06:14:22;;;;;;;62.53;24.40;;;0.30;99.90;;;;;;5070763;28;20404;-60
2022/01/27 06:16:48;;;;;;;74.05;25.48;;;0.10;99.90;;;;;;5070801;28;20485;-60
2022/01/27 06:19:14;;;;;;;54.78;19.63;;;0.10;99.90;;;;;;5071551;28;20959;-60
2022/01/27 06:21:42;;;;;;;72.55;25.40;;;-0.10;99.90;;;;;;5069833;28;20399;-64
2022/01/27 06:24:08;;;;;;;59.67;19.90;;;1.20;99.90;;;;;;5070483;28;20399;-61
2022/01/27 06:26:34;;;;;;;56.63;22.23;;;0.00;99.90;;;;;;5070061;28;20516;-62
2022/01/27 06:28:59;;;;;;;57.05;22.23;;;1.00;99.90;;;;;;5073738;28;20415;-62
2022/01/27 06:31:25;;;;;;;60.90;22.53;;;0.60;99.90;;;;;;5076353;28;20405;-62
2022/01/27 06:33:52;;;;;;;61.57;23.73;;;0.00;99.90;;;;;;5075313;28;20511;-62
2022/01/27 06:36:18;;;;;;;60.13;22.52;;;0.00;99.90;;;;;;5069579;28;20406;-60
2022/01/27 06:38:44;;;;;;;56.58;23.75;;;-0.10;99.90;;;;;;5070331;28;20404;-61
2022/01/27 06:41:10;;;;;;;53.28;19.85;;;0.80;99.90;;;;;;5074866;28;20401;-62
2022/01/27 06:43:36;;;;;;;48.47;19.37;;;-0.10;99.90;;;;;;5075843;28;20404;-60
2022/01/27 06:46:01;;;;;;;47.53;18.70;;;-0.20;99.90;;;;;;5070822;28;20399;-59
2022/01/27 06:48:27;;;;;;;43.05;18.70;;;-0.30;99.90;;;;;;5070114;28;20873;-58
2022/01/27 06:50:55;;;;;;;40.17;16.95;;;-0.40;99.90;;;;;;5070127;28;20786;-59
2022/01/27 06:53:21;;;;;;;51.55;18.35;;;-0.40;99.90;;;;;;5070737;28;20427;-60
2022/01/27 06:55:47;;;;;;;34.45;14.60;;;-0.30;99.90;;;;;;5070016;28;20419;-62
2022/01/27 06:58:14;;;;;;;34.90;15.95;;;-0.50;99.90;;;;;;5074264;28;20463;-62
2022/01/27 07:00:40;;;;;;;40.13;15.55;;;-0.60;99.90;;;;;;5075740;28;20993;-62
2022/01/27 07:03:06;;;;;;;43.20;15.90;;;-0.50;99.90;;;;;;5082285;28;20398;-62
2022/01/27 07:05:33;;;;;;;35.73;14.20;;;-0.60;99.90;;;;;;5079408;28;20434;-62
2022/01/27 07:07:59;;;;;;;42.75;16.98;;;-0.60;99.90;;;;;;5079764;28;20403;-61
2022/01/27 07:10:25;;;;;;;42.40;16.17;;;-0.60;99.90;;;;;;5077543;28;20408;-61
2022/01/27 07:12:50;;;;;;;43.88;17.67;;;0.10;99.90;;;;;;5087660;28;20955;-62
2022/01/27 07:15:16;;;;;;;54.67;18.00;;;-0.70;99.90;;;;;;5075486;28;20474;-63
2022/01/27 07:17:42;;;;;;;42.47;16.63;;;-0.60;99.90;;;;;;5089942;28;20424;-61
2022/01/27 07:20:09;;;;;;;46.35;17.40;;;0.50;99.90;;;;;;5084120;28;20390;-62
2022/01/27 07:22:36;;;;;;;52.83;19.10;;;-0.60;99.90;;;;;;5077028;28;20390;-61
2022/01/27 07:25:03;;;;;;;48.13;18.52;;;-0.70;99.90;;;;;;5076265;28;20382;-60
2022/01/27 07:27:30;;;;;;;52.83;18.40;;;-0.70;99.90;;;;;;5090475;28;20386;-60
2022/01/27 07:29:56;;;;;;;49.53;18.40;;;-0.70;99.90;;;;;;5074927;28;20421;-61
2022/01/27 07:32:21;;;;;;;39.83;15.57;;;0.60;99.90;;;;;;5074064;28;20412;-62
2022/01/27 07:34:47;;;;;;;34.10;12.75;;;-0.10;99.90;;;;;;5077497;28;20910;-61
2022/01/27 07:37:13;;;;;;;38.22;15.95;;;-1.10;99.90;;;;;;5077129;28;20488;-63
2022/01/27 07:39:38;;;;;;;53.33;18.57;;;-1.10;99.90;;;;;;5085751;28;20478;-60
2022/01/27 07:42:04;;;;;;;42.13;15.07;;;-1.10;99.90;;;;;;5090316;28;21196;-62
2022/01/27 07:44:30;;;;;;;51.00;18.55;;;-1.20;99.90;;;;;;5074948;28;20890;-60
2022/01/27 07:46:55;;;;;;;56.15;18.17;;;-1.10;99.90;;;;;;5089957;28;20406;-62
2022/01/27 07:49:21;;;;;;;48.97;18.27;;;-1.10;99.90;;;;;;5073028;28;20403;-62
2022/01/27 07:51:47;;;;;;;55.27;18.23;;;-0.90;99.90;;;;;;5075788;28;20415;-61
2022/01/27 07:54:13;;;;;;;53.03;18.20;;;-1.10;99.90;;;;;;5077154;28;20382;-62
2022/01/27 07:56:38;;;;;;;56.78;18.58;;;-1.00;99.90;;;;;;5078543;28;20397;-62
2022/01/27 07:59:04;;;;;;;54.72;21.33;;;-1.00;99.90;;;;;;5073606;28;20404;-62
2022/01/27 08:01:30;;;;;;;52.85;19.67;;;0.10;99.90;;;;;;5085196;28;20515;-59
2022/01/27 08:03:55;;;;;;;55.90;20.20;;;-0.90;99.90;;;;;;5089578;28;20386;-61
2022/01/27 08:06:21;;;;;;;58.97;19.83;;;-0.90;99.90;;;;;;5074651;28;20404;-61
2022/01/27 08:08:48;;;;;;;61.78;21.10;;;-1.00;99.90;;;;;;5075042;28;20873;-63
2022/01/27 08:11:14;;;;;;;60.88;20.27;;;-0.40;99.90;;;;;;5068971;28;20416;-61
2022/01/27 08:13:39;;;;;;;64.28;22.00;;;-0.90;99.90;;;;;;5068589;28;20753;-61
2022/01/27 08:16:05;;;;;;;63.83;21.63;;;-0.80;99.90;;;;;;5071002;28;20885;-61
2022/01/27 08:18:31;;;;;;;64.15;21.63;;;-0.70;99.90;;;;;;5072641;28;20425;-57
2022/01/27 08:20:57;;;;;;;62.63;22.30;;;-0.60;99.90;;;;;;5071963;28;20411;-61
2022/01/27 08:23:22;;;;;;;59.40;22.10;;;-0.80;99.90;;;;;;5081694;28;20398;-61
2022/01/27 08:25:53;;;;;;;57.88;19.55;;;-0.90;99.90;;;;;;5089385;28;21060;-60
2022/01/27 08:28:29;;;;;;;61.28;20.48;;;-1.10;99.90;;;;;;5090107;28;20402;-61
2022/01/27 08:30:58;;;;;;;60.08;20.60;;;-1.10;99.90;;;;;;5081980;28;20410;-61
2022/01/27 08:33:28;;;;;;;56.00;19.50;;;-1.20;99.90;;;;;;5082680;28;20400;-61
2022/01/27 08:35:54;;;;;;;61.47;19.83;;;-1.20;99.90;;;;;;5092866;28;20506;-62
2022/01/27 08:38:20;;;;;;;56.53;18.77;;;-1.10;99.90;;;;;;5075356;28;20839;-61
2022/01/27 08:40:46;;;;;;;49.30;18.27;;;-1.10;99.90;;;;;;5094220;28;20424;-60
2022/01/27 08:43:12;;;;;;;50.80;18.88;;;-1.00;99.90;;;;;;5087838;28;20406;-61
2022/01/27 08:45:39;;;;;;;54.47;19.27;;;-1.10;99.90;;;;;;5081118;28;20429;-61
2022/01/27 08:48:10;;;;;;;42.58;16.30;;;-1.10;99.90;;;;;;5081185;28;20413;-61
2022/01/27 08:50:36;;;;;;;57.33;19.13;;;-1.10;99.90;;;;;;5087573;28;20418;-61
2022/01/27 08:53:02;;;;;;;55.30;19.80;;;-0.90;99.90;;;;;;5088083;28;20444;-61
2022/01/27 08:55:28;;;;;;;48.43;18.30;;;-0.80;99.90;;;;;;5081174;28;20476;-62
2022/01/27 08:57:54;;;;;;;46.75;17.02;;;-0.60;99.90;;;;;;5071544;28;20402;-62
2022/01/27 09:00:20;;;;;;;42.88;18.15;;;-0.70;99.90;;;;;;5108478;28;20386;-60
2022/01/27 09:02:46;;;;;;;48.20;16.42;;;-0.60;99.90;;;;;;5105546;28;20905;-60
2022/01/27 09:05:13;;;;;;;39.50;15.55;;;-0.40;99.90;;;;;;5088969;28;20502;-60
2022/01/27 09:07:40;;;;;;;42.10;16.20;;;-0.30;99.90;;;;;;5088111;28;20386;-57
2022/01/27 09:10:06;;;;;;;40.20;14.20;;;-0.20;99.90;;;;;;5089040;28;20406;-60
2022/01/27 09:12:32;;;;;;;40.50;14.18;;;0.00;99.90;;;;;;5088800;28;20370;-57
2022/01/27 09:14:59;;;;;;;38.83;14.70;;;-0.10;99.90;;;;;;5070841;28;20395;-60
2022/01/27 09:17:26;;;;;;;34.83;14.20;;;0.10;99.90;;;;;;5068794;28;20408;-59
2022/01/27 09:19:53;;;;;;;34.78;14.02;;;0.20;99.90;;;;;;5068117;28;20644;-59
2022/01/27 09:22:19;;;;;;;32.92;13.98;;;0.30;99.90;;;;;;5067482;28;20376;-60
2022/01/27 09:27:19;;;;;;;32.67;12.63;;;0.60;99.90;;;;;;5093124;28;20419;-60
2022/01/27 09:29:48;;;;;;;32.78;13.88;;;0.70;99.90;;;;;;5108253;28;20432;-60
2022/01/27 09:32:15;;;;;;;32.20;13.10;;;0.80;99.90;;;;;;5109015;28;20384;-60
2022/01/27 09:34:42;;;;;;;37.03;13.25;;;0.80;99.90;;;;;;5104995;28;20380;-60
2022/01/27 09:37:08;;;;;;;29.35;12.75;;;0.90;99.90;;;;;;5092872;28;20398;-60
2022/01/27 09:39:34;;;;;;;30.07;13.10;;;1.00;99.90;;;;;;5107947;28;20376;-58
2022/01/27 09:42:02;;;;;;;35.03;12.73;;;0.90;99.90;;;;;;5109551;28;20380;-59
2022/01/27 09:44:31;;;;;;;32.92;13.10;;;1.00;99.90;;;;;;5109277;28;20522;-59
2022/01/27 09:47:00;;;;;;;33.05;11.55;;;1.10;99.90;;;;;;5103658;28;20411;-60
2022/01/27 09:50:07;;;;;;;26.17;11.48;;;1.30;99.90;;;;;;5097741;28;20383;-60
2022/01/27 09:52:18;;;;;;;27.73;12.03;;;1.30;99.90;;;;;;5089618;28;20493;-60
2022/01/27 09:54:45;;;;;;;28.58;11.75;;;1.90;99.90;;;;;;5087642;28;20386;-60
2022/01/27 09:57:14;;;;;;;26.73;12.07;;;1.20;99.90;;;;;;5086653;28;20713;-60
2022/01/27 09:59:41;;;;;;;27.70;11.52;;;1.50;99.90;;;;;;5087629;28;20405;-60
2022/01/27 10:02:09;;;;;;;28.02;11.27;;;1.50;99.90;;;;;;5088144;28;20509;-59
2022/01/27 10:04:49;;;;;;;26.73;11.07;;;1.50;99.90;;;;;;5087226;28;20893;-58
2022/01/27 10:07:32;;;;;;;28.85;13.20;;;1.50;99.90;;;;;;5085779;28;20424;-60
2022/01/27 10:10:04;;;;;;;33.07;14.83;;;1.50;99.90;;;;;;5089226;28;20413;-60
2022/01/27 10:12:35;;;;;;;32.30;16.55;;;1.40;99.90;;;;;;5091845;28;20439;-61
2022/01/27 10:15:11;;;;;;;28.85;12.88;;;1.60;99.90;;;;;;5091399;28;20402;-59
2022/01/27 10:17:39;;;;;;;30.90;16.17;;;1.60;99.90;;;;;;5070054;28;20416;-60
2022/01/27 10:20:16;;;;;;;35.13;16.48;;;1.60;99.90;;;;;;5070917;28;20483;-59
2022/01/27 10:22:41;;;;;;;32.95;14.43;;;1.70;99.90;;;;;;5071015;28;20379;-60
2022/01/27 10:25:10;;;;;;;34.13;15.30;;;1.80;99.90;;;;;;5070296;28;20487;-61
2022/01/27 10:30:51;;;;;;;28.70;13.45;;;1.80;99.90;;;;;;5071764;28;20411;-61
2022/01/27 10:32:57;;;;;;;27.35;11.10;;;2.00;99.90;;;;;;5070339;28;20387;-61
2022/01/27 10:35:25;;;;;;;26.93;15.00;;;2.00;99.90;;;;;;5071610;28;20399;-61
2022/01/27 10:38:12;;;;;;;20.55;9.32;;;1.90;99.90;;;;;;5069678;28;20415;-61
2022/01/27 10:40:38;;;;;;;24.83;10.43;;;2.00;99.90;;;;;;5070567;28;20380;-61
2022/01/27 10:43:21;;;;;;;31.65;16.33;;;1.80;99.90;;;;;;5071552;28;20392;-61
2022/01/27 10:46:13;;;;;;;21.27;9.80;;;1.80;99.90;;;;;;5070812;28;20427;-62
2022/01/27 10:48:41;;;;;;;20.48;9.77;;;2.00;99.90;;;;;;5069519;28;20745;-61
2022/01/27 10:51:16;;;;;;;21.88;9.45;;;2.00;99.90;;;;;;5071159;28;20503;-62
2022/01/27 10:53:51;;;;;;;19.77;8.95;;;2.20;99.90;;;;;;5070561;28;20462;-61
2022/01/27 10:56:42;;;;;;;21.30;9.30;;;2.10;99.90;;;;;;5085064;28;20421;-60
2022/01/27 10:59:14;;;;;;;20.80;10.00;;;2.10;99.90;;;;;;5091101;28;20437;-63
2022/01/27 11:01:46;;;;;;;21.90;8.80;;;2.20;99.90;;;;;;5090805;28;20439;-64
2022/01/27 11:04:13;;;;;;;23.63;10.93;;;2.30;99.90;;;;;;5091936;28;20375;-65
2022/01/27 11:06:58;;;;;;;18.48;8.45;;;2.30;99.90;;;;;;5090720;28;20370;-62
2022/01/27 11:09:25;;;;;;;18.48;8.68;;;2.30;99.90;;;;;;5108261;28;20388;-60
2022/01/27 11:11:53;;;;;;;20.90;9.68;;;4.00;99.90;;;;;;5110992;28;20392;-60
2022/01/27 11:14:20;;;;;;;22.27;9.40;;;2.60;99.90;;;;;;5097988;28;20382;-61
2022/01/27 11:16:49;;;;;;;20.05;9.85;;;2.50;99.90;;;;;;5089948;28;20412;-62
2022/01/27 11:21:48;;;;;;;19.92;8.85;;;3.30;99.90;;;;;;5090145;28;20394;-61
2022/01/27 11:24:25;;;;;;;19.60;8.60;;;2.50;99.90;;;;;;5091103;28;20796;-61
2022/01/27 11:26:54;;;;;;;24.98;11.13;;;2.40;99.90;;;;;;5090320;28;20378;-61
2022/01/27 11:29:21;;;;;;;21.38;9.95;;;2.30;99.90;;;;;;5085326;28;20444;-61
2022/01/27 11:31:50;;;;;;;22.45;9.68;;;3.70;99.90;;;;;;5091309;28;20410;-60
2022/01/27 11:34:16;;;;;;;23.15;9.40;;;2.60;99.90;;;;;;5087621;28;20475;-61
2022/01/27 11:37:04;;;;;;;21.48;9.80;;;2.50;99.90;;;;;;5073631;28;20434;-60
2022/01/27 11:39:54;;;;;;;21.85;9.30;;;2.70;99.90;;;;;;5075189;28;20869;-63
2022/01/27 11:42:41;;;;;;;21.88;10.13;;;2.80;99.90;;;;;;5087111;28;20400;-61
2022/01/27 11:45:32;;;;;;;22.67;10.27;;;2.90;99.90;;;;;;5074513;28;20931;-61
2022/01/27 11:48:15;;;;;;;21.10;9.75;;;2.90;99.90;;;;;;5073264;28;20412;-60
2022/01/27 11:50:58;;;;;;;21.73;8.90;;;2.90;99.90;;;;;;5073568;28;20411;-61
2022/01/27 11:53:38;;;;;;;22.85;10.95;;;2.80;99.90;;;;;;5078724;28;20884;-61
2022/01/27 11:56:06;;;;;;;23.70;10.70;;;2.90;99.90;;;;;;5076154;28;20396;-62
2022/01/27 11:58:43;;;;;;;22.40;9.60;;;3.00;99.90;;;;;;5075985;28;20413;-62
2022/01/27 12:01:14;;;;;;;19.87;9.03;;;2.90;99.90;;;;;;5075384;28;20396;-62
2022/01/27 12:03:41;;;;;;;22.08;9.98;;;2.70;99.90;;;;;;5077334;28;20417;-59
2022/01/27 12:06:21;;;;;;;23.15;10.10;;;2.70;99.90;;;;;;5082646;28;20479;-60
2022/01/27 12:08:48;;;;;;;23.75;10.98;;;2.90;99.90;;;;;;5076533;28;20753;-60
2022/01/27 12:11:44;;;;;;;21.90;10.25;;;2.90;99.90;;;;;;5072031;28;20888;-62
2022/01/27 12:14:10;;;;;;;24.02;10.80;;;3.00;99.90;;;;;;5087417;28;20402;-62
2022/01/27 12:19:04;;;;;;;22.10;9.67;;;3.00;99.90;;;;;;5089221;28;20488;-63
2022/01/27 12:21:38;;;;;;;22.60;10.07;;;2.80;99.90;;;;;;5089723;28;20412;-63
2022/01/27 12:26:49;;;;;;;21.38;9.90;;;3.70;99.90;;;;;;5090792;28;20403;-61
2022/01/27 12:29:22;;;;;;;25.73;10.77;;;3.70;99.90;;;;;;5070069;28;20453;-62
2022/01/27 12:31:50;;;;;;;24.35;10.82;;;3.00;99.90;;;;;;5067573;28;20915;-62
2022/01/27 12:34:15;;;;;;;21.73;10.30;;;3.10;99.90;;;;;;5075043;28;20392;-64
2022/01/27 12:37:06;;;;;;;27.63;10.88;;;3.30;99.90;;;;;;5072912;28;20472;-63
2022/01/27 12:39:35;;;;;;;23.60;10.88;;;3.40;99.90;;;;;;5076048;28;20883;-63
2022/01/27 12:42:04;;;;;;;24.40;11.07;;;3.60;99.90;;;;;;5076202;28;20384;-62
2022/01/27 12:44:30;;;;;;;22.42;10.30;;;3.60;99.90;;;;;;5073089;28;20384;-64
2022/01/27 12:47:06;;;;;;;21.83;9.90;;;4.60;99.90;;;;;;5069649;28;20479;-63
2022/01/27 12:49:41;;;;;;;23.15;10.30;;;3.60;99.90;;;;;;5070371;28;20392;-63
2022/01/27 12:52:09;;;;;;;21.15;11.30;;;3.60;99.90;;;;;;5071161;28;20554;-63
2022/01/27 12:54:37;;;;;;;21.15;9.50;;;3.60;99.90;;;;;;5084176;28;20401;-62
2022/01/27 12:57:04;;;;;;;25.10;10.73;;;3.60;99.90;;;;;;5084156;28;20400;-64
2022/01/27 12:59:32;;;;;;;23.23;11.35;;;3.50;99.90;;;;;;5070040;28;20849;-63
2022/01/27 13:01:59;;;;;;;21.73;11.05;;;3.50;99.90;;;;;;5071532;28;20914;-64
2022/01/27 13:04:26;;;;;;;22.55;10.73;;;3.50;99.90;;;;;;5073097;28;20387;-64
2022/01/27 13:06:56;;;;;;;24.15;11.18;;;4.00;99.90;;;;;;5088622;28;20458;-61
2022/01/27 13:09:22;;;;;;;21.13;11.02;;;3.30;99.90;;;;;;5089148;28;20385;-64
2022/01/27 13:11:52;;;;;;;22.67;10.13;;;3.50;99.90;;;;;;5087969;28;20414;-63
2022/01/27 13:14:17;;;;;;;23.15;11.13;;;3.60;99.90;;;;;;5089954;28;20398;-64
2022/01/27 13:16:49;;;;;;;22.58;10.40;;;3.50;99.90;;;;;;5081450;28;20421;-63
2022/01/27 13:19:28;;;;;;;23.90;10.60;;;3.50;99.90;;;;;;5086464;28;21025;-64
2022/01/27 13:22:07;;;;;;;21.77;11.05;;;3.60;99.90;;;;;;5076002;28;20390;-63
2022/01/27 13:24:35;;;;;;;26.23;10.68;;;3.90;99.90;;;;;;5088779;28;20407;-63
2022/01/27 13:27:12;;;;;;;21.50;9.82;;;3.80;99.90;;;;;;5091369;28;20388;-63
2022/01/27 13:29:46;;;;;;;22.15;10.05;;;4.00;99.90;;;;;;5090318;28;20481;-63
2022/01/27 13:32:13;;;;;;;22.30;10.53;;;4.20;99.90;;;;;;5070707;28;20734;-64
2022/01/27 13:34:49;;;;;;;22.52;10.82;;;4.30;99.90;;;;;;5089962;28;20386;-63
2022/01/27 13:37:33;;;;;;;24.15;10.82;;;4.20;99.90;;;;;;5075024;28;20808;-63
2022/01/27 13:42:55;;;;;;;26.88;11.68;;;4.80;99.90;;;;;;5075165;28;20387;-63
2022/01/27 13:45:21;;;;;;;19.02;9.65;;;4.10;99.90;;;;;;5082814;28;20894;-62
2022/01/27 13:47:47;;;;;;;22.98;10.73;;;4.10;99.90;;;;;;5077852;28;20441;-63